Destinations Kristiansund Airport (Kvernberget)

Kristiansund Airport (Kvernberget) (ENKB / KSU)

Flights to Kristiansund Airport (Kvernberget)

Flight number From ETE Dispatch
SPY-3121 ENVA Trondheim Airport Værnes 00:40

Flights from Kristiansund Airport (Kvernberget)

Flight number To ETE Dispatch
SPY-3122 ENVA Trondheim Airport Værnes 00:40
About

Kristiansund Airport (Kvernberget) facts

Kristiansund Airport (Kvernberget) is located in Kristiansund at an elevation of 62.2 meters or 204 feet.

Currently, Speedy Airlines serves 2 flights to and from Kristiansund Airport (Kvernberget).

Detailed airport info

Route map

Weather

Current weather

METAR

METAR

Metar data retrieved Sunday, 21 July 2024 at 19:25 UTC

ENKB 211850Z 28009KT CAVOK 18/13 Q1006 RMK WIND 745FT 29009KT
Wind Temperature
9 kt 18c